Jacobus — OR3790 — position and weather

sailwx.info

Track history (hours):
 
Tides and Currents Weather Stations Pressure Air Temp Water Temp Dewpoint Dewpoint Depression Visibility Wind Speed Wind Dir Waves Ship Positions

Jacobus

Last reported at 2015-Jul-02 01:10 UTC. Time now 2015-Jul-03 15:37 UTC.
Position N 41°08' E 008°05'.

Length 17 m.

Type: Pleasure craft. MMSI: 205379010.

Date/timePositionNaut miles runAvg speedWind from/ knotsBaromVisibWave heightAir tempDewpointWater temp
2015-Jul-02 01:10N 41°08' E 008°05'20 7.1
2015-Jul-01 22:22N 40°57' E 007°43'11 6.0
2015-Jul-01 20:31N 40°53' E 007°29'12 6.2
2015-Jul-01 18:34N 40°45' E 007°17'15 6.3
2015-Jul-01 16:13N 40°44' E 006°57'6 8.7
2015-Jul-01 15:33N 40°41' E 006°50'8 8.0
2015-Jul-01 14:33N 40°38' E 006°41'7 7.4
2015-Jul-01 13:33N 40°35' E 006°32'6 6.1
2015-Jul-01 12:31N 40°32' E 006°25'4 3.7
2015-Jul-01 11:31N 40°29' E 006°21'8 6.3
2015-Jul-01 10:16N 40°26' E 006°11'4 6.3
2015-Jul-01 09:33N 40°24' E 006°06'4 4.4
2015-Jul-01 08:33N 40°22' E 006°01'5 5.1
2015-Jul-01 07:33N 40°19' E 005°56'5 5.1
2015-Jul-01 06:32N 40°17' E 005°50'5 5.0
2015-Jul-01 05:33N 40°15' E 005°44'7 5.7
2015-Jul-01 04:17N 40°12' E 005°35'6 6.4
2015-Jul-01 03:19N 40°09' E 005°28'11 6.0
2015-Jul-01 01:29N 40°05' E 005°14'75 3.3
2015-Jun-30 02:33N 39°36' E 003°45'30 7.6
2015-Jun-29 22:33N 39°19' E 003°11'5 4.8
2015-Jun-29 21:31N 39°16' E 003°07'5 5.5
2015-Jun-29 20:33N 39°13' E 003°02'7 6.5
2015-Jun-29 19:28N 39°18' E 002°55'6 6.5
2015-Jun-29 18:30N 39°21' E 002°48'6 6.8
2015-Jun-29 17:33N 39°26' E 002°43'4 4.2
2015-Jun-29 16:33N 39°30' E 002°45'0 0.0
2015-Jun-29 15:31N 39°30' E 002°45'0 0.0
2015-Jun-29 14:31N 39°30' E 002°45'  
2015-Jun-26 18:32N 39°30' E 002°45'0 0.0
2015-Jun-26 17:29N 39°30' E 002°45'0 0.0
2015-Jun-26 16:23N 39°30' E 002°45'0 0.0
2015-Jun-26 15:32N 39°30' E 002°45'0 0.0
2015-Jun-26 14:32N 39°30' E 002°45'0 0.0
2015-Jun-26 13:32N 39°30' E 002°45'0 0.0
2015-Jun-26 12:32N 39°30' E 002°45'0 0.0
2015-Jun-26 11:32N 39°30' E 002°45'0 0.0
2015-Jun-26 10:29N 39°30' E 002°45'0 0.0
2015-Jun-24 16:31N 39°30' E 002°45'0 0.0
2015-Jun-24 15:31N 39°30' E 002°45'0 0.0
2015-Jun-24 03:31N 39°30' E 002°45'1 0.9
2015-Jun-24 02:33N 39°30' E 002°44'1 0.2
2015-Jun-23 20:30N 39°30' E 002°45'0 0.0
2015-Jun-23 19:33N 39°30' E 002°45'0 0.0
2015-Jun-23 19:03N 39°30' E 002°45'8 0.3
2015-Jun-22 19:33N 39°32' E 002°35'0 0.0
2015-Jun-22 18:33N 39°32' E 002°35'0 0.0
2015-Jun-22 17:31N 39°32' E 002°35'1 0.5
2015-Jun-22 16:27N 39°31' E 002°34'4 3.9
2015-Jun-22 15:30N 39°28' E 002°31'0 0.0
2015-Jun-22 13:19N 39°28' E 002°31'0 0.1
2015-Jun-22 12:22N 39°28' E 002°31'1 0.8
2015-Jun-22 11:33N 39°29' E 002°32'4 3.4
2015-Jun-22 10:24N 39°32' E 002°35'0 0.0
2015-Jun-22 09:33N 39°32' E 002°35'0 0.0
2015-Jun-22 08:33N 39°32' E 002°35'0 0.0
2015-Jun-22 07:33N 39°32' E 002°35'0 0.0
2015-Jun-22 06:33N 39°32' E 002°35'0 0.0
2015-Jun-22 05:33N 39°32' E 002°35'0 0.0
2015-Jun-22 04:33N 39°32' E 002°35'0 0.0
2015-Jun-22 03:33N 39°32' E 002°35'0 0.0
2015-Jun-22 02:32N 39°32' E 002°35'0 0.0
2015-Jun-22 01:32N 39°32' E 002°35'  
Track history (hours):
 
Tides and Currents Weather Stations Pressure Air Temp Water Temp Dewpoint Dewpoint Depression Visibility Wind Speed Wind Dir Waves Ship Positions

Jacobus

Last reported at 2015-Jul-02 01:10 UTC. Time now 2015-Jul-03 15:37 UTC.
Position N 41°08' E 008°05'.

Length 17 m.

Type: Pleasure craft. MMSI: 205379010.

Date/timePositionNaut miles runAvg speedWind from/ knotsBaromVisibWave heightAir tempDewpointWater temp
2015-Jul-02 01:10N 41°08' E 008°05'20 7.1
2015-Jul-01 22:22N 40°57' E 007°43'11 6.0
2015-Jul-01 20:31N 40°53' E 007°29'12 6.2
2015-Jul-01 18:34N 40°45' E 007°17'15 6.3
2015-Jul-01 16:13N 40°44' E 006°57'6 8.7
2015-Jul-01 15:33N 40°41' E 006°50'8 8.0
2015-Jul-01 14:33N 40°38' E 006°41'7 7.4
2015-Jul-01 13:33N 40°35' E 006°32'6 6.1
2015-Jul-01 12:31N 40°32' E 006°25'4 3.7
2015-Jul-01 11:31N 40°29' E 006°21'8 6.3
2015-Jul-01 10:16N 40°26' E 006°11'4 6.3
2015-Jul-01 09:33N 40°24' E 006°06'4 4.4
2015-Jul-01 08:33N 40°22' E 006°01'5 5.1
2015-Jul-01 07:33N 40°19' E 005°56'5 5.1
2015-Jul-01 06:32N 40°17' E 005°50'5 5.0
2015-Jul-01 05:33N 40°15' E 005°44'7 5.7
2015-Jul-01 04:17N 40°12' E 005°35'6 6.4
2015-Jul-01 03:19N 40°09' E 005°28'11 6.0
2015-Jul-01 01:29N 40°05' E 005°14'75 3.3
2015-Jun-30 02:33N 39°36' E 003°45'30 7.6
2015-Jun-29 22:33N 39°19' E 003°11'5 4.8
2015-Jun-29 21:31N 39°16' E 003°07'5 5.5
2015-Jun-29 20:33N 39°13' E 003°02'7 6.5
2015-Jun-29 19:28N 39°18' E 002°55'6 6.5
2015-Jun-29 18:30N 39°21' E 002°48'6 6.8
2015-Jun-29 17:33N 39°26' E 002°43'4 4.2
2015-Jun-29 16:33N 39°30' E 002°45'0 0.0
2015-Jun-29 15:31N 39°30' E 002°45'0 0.0
2015-Jun-29 14:31N 39°30' E 002°45'  
2015-Jun-26 18:32N 39°30' E 002°45'0 0.0
2015-Jun-26 17:29N 39°30' E 002°45'0 0.0
2015-Jun-26 16:23N 39°30' E 002°45'0 0.0
2015-Jun-26 15:32N 39°30' E 002°45'0 0.0
2015-Jun-26 14:32N 39°30' E 002°45'0 0.0
2015-Jun-26 13:32N 39°30' E 002°45'0 0.0
2015-Jun-26 12:32N 39°30' E 002°45'0 0.0
2015-Jun-26 11:32N 39°30' E 002°45'0 0.0
2015-Jun-26 10:29N 39°30' E 002°45'0 0.0
2015-Jun-24 16:31N 39°30' E 002°45'0 0.0
2015-Jun-24 15:31N 39°30' E 002°45'0 0.0
2015-Jun-24 03:31N 39°30' E 002°45'1 0.9
2015-Jun-24 02:33N 39°30' E 002°44'1 0.2
2015-Jun-23 20:30N 39°30' E 002°45'0 0.0
2015-Jun-23 19:33N 39°30' E 002°45'0 0.0
2015-Jun-23 19:03N 39°30' E 002°45'8 0.3
2015-Jun-22 19:33N 39°32' E 002°35'0 0.0
2015-Jun-22 18:33N 39°32' E 002°35'0 0.0
2015-Jun-22 17:31N 39°32' E 002°35'1 0.5
2015-Jun-22 16:27N 39°31' E 002°34'4 3.9
2015-Jun-22 15:30N 39°28' E 002°31'0 0.0
2015-Jun-22 13:19N 39°28' E 002°31'0 0.1
2015-Jun-22 12:22N 39°28' E 002°31'1 0.8
2015-Jun-22 11:33N 39°29' E 002°32'4 3.4
2015-Jun-22 10:24N 39°32' E 002°35'0 0.0
2015-Jun-22 09:33N 39°32' E 002°35'0 0.0
2015-Jun-22 08:33N 39°32' E 002°35'0 0.0
2015-Jun-22 07:33N 39°32' E 002°35'0 0.0
2015-Jun-22 06:33N 39°32' E 002°35'0 0.0
2015-Jun-22 05:33N 39°32' E 002°35'0 0.0
2015-Jun-22 04:33N 39°32' E 002°35'0 0.0
2015-Jun-22 03:33N 39°32' E 002°35'0 0.0
2015-Jun-22 02:32N 39°32' E 002°35'0 0.0
2015-Jun-22 01:32N 39°32' E 002°35'  

Dump ship's entire track history